createdAt,value
2023-01-31T00:10:58.610Z,2.4
2023-01-31T00:22:58.625Z,2.3
2023-01-31T00:34:58.738Z,2.3
2023-01-31T00:46:58.793Z,2.2
2023-01-31T00:58:58.640Z,2.2
2023-01-31T01:10:58.696Z,2.4
2023-01-31T01:22:58.649Z,2.3
2023-01-31T01:34:58.730Z,2.3
2023-01-31T01:46:58.721Z,2.3
2023-01-31T01:58:58.624Z,2.2
2023-01-31T02:10:58.730Z,2.2
2023-01-31T02:22:58.707Z,2.1
2023-01-31T02:34:58.666Z,2.1
2023-01-31T02:46:58.702Z,2.0
2023-01-31T02:58:58.695Z,1.9
2023-01-31T03:10:58.738Z,1.9
2023-01-31T03:22:58.716Z,1.9
2023-01-31T03:34:58.705Z,1.9
2023-01-31T03:46:58.729Z,1.8
2023-01-31T03:58:58.707Z,1.5
2023-01-31T04:10:58.673Z,1.3
2023-01-31T04:22:58.620Z,1.1
2023-01-31T04:35:01.276Z,1.0
2023-01-31T04:46:58.744Z,0.8
2023-01-31T04:58:58.707Z,0.8
2023-01-31T05:10:58.619Z,0.7
2023-01-31T05:22:58.728Z,0.5
2023-01-31T05:34:58.629Z,0.3
2023-01-31T05:46:58.803Z,0.3
2023-01-31T05:58:58.611Z,0.0
2023-01-31T06:10:58.681Z,-0.1
2023-01-31T06:22:58.654Z,-0.1
2023-01-31T06:34:58.687Z,-0.1
2023-01-31T06:46:58.629Z,-0.0
2023-01-31T06:58:58.627Z,-0.1
2023-01-31T07:10:58.641Z,-0.2
2023-01-31T07:22:58.666Z,-0.0
2023-01-31T07:34:58.627Z,0.1
2023-01-31T07:46:58.741Z,0.1
2023-01-31T07:58:58.628Z,0.2
2023-01-31T08:10:58.720Z,0.4
2023-01-31T08:22:58.692Z,0.5
2023-01-31T08:34:58.739Z,0.6
2023-01-31T08:46:58.772Z,0.7
2023-01-31T08:58:58.682Z,0.9
2023-01-31T09:10:58.707Z,0.9
2023-01-31T09:22:58.724Z,1.1
2023-01-31T09:34:58.624Z,1.2
2023-01-31T09:46:58.791Z,1.3
2023-01-31T09:58:58.702Z,1.5
2023-01-31T10:10:58.732Z,1.6
2023-01-31T10:22:58.710Z,1.9
2023-01-31T10:34:58.702Z,1.9
2023-01-31T10:46:58.793Z,2.0
2023-01-31T10:58:59.133Z,1.8
2023-01-31T11:10:58.732Z,1.6
2023-01-31T11:22:58.613Z,1.5
2023-01-31T11:34:58.670Z,1.4
2023-01-31T11:46:58.629Z,1.4
2023-01-31T11:58:58.732Z,1.5
2023-01-31T12:10:58.774Z,1.6
2023-01-31T12:22:58.718Z,1.7
2023-01-31T12:35:01.720Z,1.8
2023-01-31T12:47:10.380Z,1.8
2023-01-31T12:59:14.715Z,1.8
2023-01-31T13:10:58.684Z,1.9
2023-01-31T13:22:58.738Z,1.9
2023-01-31T13:34:58.626Z,2.2
2023-01-31T13:46:58.623Z,2.5
2023-01-31T13:58:58.704Z,3.0
2023-01-31T14:10:58.623Z,3.1
2023-01-31T14:22:58.704Z,3.2
2023-01-31T14:34:58.616Z,3.2
2023-01-31T14:47:01.219Z,3.2
2023-01-31T14:58:58.619Z,3.1
2023-01-31T15:10:58.706Z,3.0
2023-01-31T15:22:58.731Z,2.8
2023-01-31T15:34:58.682Z,2.8
2023-01-31T15:46:58.626Z,2.7
2023-01-31T15:58:58.732Z,2.7
2023-01-31T16:10:58.711Z,2.8
2023-01-31T16:22:58.707Z,2.8
2023-01-31T16:34:58.617Z,2.8
2023-01-31T16:46:58.709Z,2.8
2023-01-31T16:58:58.622Z,2.8
2023-01-31T17:10:58.683Z,2.8
2023-01-31T17:23:02.984Z,2.8
2023-01-31T17:34:58.698Z,2.7
2023-01-31T17:46:58.714Z,2.7
2023-01-31T17:58:58.615Z,2.7
2023-01-31T18:10:58.735Z,2.8
2023-01-31T18:22:58.705Z,2.8
2023-01-31T18:34:58.687Z,2.8
2023-01-31T18:46:58.632Z,2.8
2023-01-31T18:58:58.673Z,2.8
2023-01-31T19:10:58.737Z,2.9
2023-01-31T19:22:58.693Z,3.0
2023-01-31T19:34:58.668Z,3.0
2023-01-31T19:46:58.727Z,3.1
2023-01-31T19:58:58.613Z,3.1
2023-01-31T20:10:59.700Z,3.1
2023-01-31T20:22:58.702Z,3.2
2023-01-31T20:34:58.726Z,3.3
2023-01-31T20:46:58.711Z,3.3
2023-01-31T20:58:58.614Z,3.3
2023-01-31T21:10:58.712Z,3.1
2023-01-31T21:22:58.730Z,3.3
2023-01-31T21:34:59.799Z,3.3
2023-01-31T21:46:58.718Z,3.2
2023-01-31T21:58:58.685Z,3.0
2023-01-31T22:10:58.739Z,3.1
2023-01-31T22:22:58.710Z,3.3
2023-01-31T22:34:58.715Z,3.3
2023-01-31T22:46:58.625Z,3.4
2023-01-31T22:58:59.837Z,3.3
2023-01-31T23:10:58.716Z,3.2
2023-01-31T23:22:58.647Z,3.3
2023-01-31T23:34:58.705Z,3.4
2023-01-31T23:46:58.718Z,3.4
2023-01-31T23:58:58.715Z,3.4
